createdAt,value
2016-08-13T00:00:29.130Z,1020.8
2016-08-13T00:01:29.157Z,1020.75
2016-08-13T00:02:29.174Z,1020.76
2016-08-13T00:03:29.193Z,1020.8
2016-08-13T00:04:29.221Z,1020.77
2016-08-13T00:05:29.233Z,1020.77
2016-08-13T00:06:29.356Z,1020.74
2016-08-13T00:07:29.277Z,1020.73
2016-08-13T00:08:29.302Z,1020.75
2016-08-13T00:09:29.314Z,1020.76
2016-08-13T00:10:29.343Z,1020.76
2016-08-13T00:11:29.363Z,1020.75
2016-08-13T00:12:29.383Z,1020.75
2016-08-13T00:13:29.403Z,1020.71
2016-08-13T00:14:29.422Z,1020.68
2016-08-13T00:15:29.441Z,1020.68
2016-08-13T00:16:29.461Z,1020.65
2016-08-13T00:17:29.486Z,1020.67
2016-08-13T00:18:29.512Z,1020.61
2016-08-13T00:19:29.523Z,1020.61
2016-08-13T00:20:29.548Z,1020.63
2016-08-13T00:21:29.565Z,1020.59
2016-08-13T00:22:29.587Z,1020.59
2016-08-13T00:23:29.610Z,1020.59
2016-08-13T00:24:29.631Z,1020.63
2016-08-13T00:25:29.647Z,1020.6
2016-08-13T00:26:29.673Z,1020.63
2016-08-13T00:27:29.694Z,1020.64
2016-08-13T00:28:29.713Z,1020.68
2016-08-13T00:29:29.734Z,1020.61
2016-08-13T00:30:29.751Z,1020.61
2016-08-13T00:31:29.774Z,1020.63
2016-08-13T00:32:29.803Z,1020.64
2016-08-13T00:33:29.813Z,1020.61
2016-08-13T00:34:29.842Z,1020.58
2016-08-13T00:35:29.853Z,1020.57
2016-08-13T00:36:29.883Z,1020.57
2016-08-13T00:37:29.903Z,1020.54
2016-08-13T00:38:29.919Z,1020.54
2016-08-13T00:39:29.941Z,1020.48
2016-08-13T00:40:29.962Z,1020.5
2016-08-13T00:41:29.979Z,1020.5
2016-08-13T00:42:29.999Z,1020.46
2016-08-13T00:43:30.023Z,1020.46
2016-08-13T00:44:30.045Z,1020.47
2016-08-13T00:45:30.062Z,1020.44
2016-08-13T00:46:30.082Z,1020.44
2016-08-13T00:47:30.114Z,1020.42
2016-08-13T00:48:30.134Z,1020.42
2016-08-13T00:49:30.151Z,1020.42
2016-08-13T00:50:30.172Z,1020.38
2016-08-13T00:51:30.192Z,1020.4
2016-08-13T00:52:30.260Z,1020.39
2016-08-13T00:53:30.233Z,1020.38
2016-08-13T00:54:30.252Z,1020.39
2016-08-13T00:55:30.271Z,1020.42
2016-08-13T00:56:30.290Z,1020.38
2016-08-13T00:57:30.321Z,1020.43
2016-08-13T00:58:30.343Z,1020.4
2016-08-13T00:59:30.363Z,1020.41
2016-08-13T01:00:30.384Z,1020.39
2016-08-13T01:01:30.404Z,1020.38
2016-08-13T01:02:30.419Z,1020.32
2016-08-13T01:03:30.443Z,1020.3
2016-08-13T01:04:30.461Z,1020.27
2016-08-13T01:05:30.492Z,1020.25
2016-08-13T01:06:30.512Z,1020.32
2016-08-13T01:07:30.532Z,1020.28
2016-08-13T01:08:30.550Z,1020.26
2016-08-13T01:09:30.573Z,1020.23
2016-08-13T01:10:30.595Z,1020.22
2016-08-13T01:11:30.616Z,1020.19
2016-08-13T01:12:30.632Z,1020.23
2016-08-13T01:13:30.651Z,1020.2
2016-08-13T01:14:30.681Z,1020.19
2016-08-13T01:15:30.692Z,1020.16
2016-08-13T01:16:30.712Z,1020.21
2016-08-13T01:17:30.732Z,1020.16
2016-08-13T01:18:30.762Z,1020.13
2016-08-13T01:19:30.778Z,1020.13
2016-08-13T01:20:30.816Z,1020.16
2016-08-13T01:21:30.822Z,1020.12
2016-08-13T01:22:30.844Z,1020.13
2016-08-13T01:23:30.858Z,1020.13
2016-08-13T01:24:30.893Z,1020.1
2016-08-13T01:25:30.906Z,1020.09
2016-08-13T01:26:30.930Z,1020.1
2016-08-13T01:27:30.952Z,1020.09
2016-08-13T01:28:30.967Z,1020.07
2016-08-13T01:29:30.989Z,1020.03
2016-08-13T01:30:31.014Z,1020.07
2016-08-13T01:31:31.133Z,1020.06
2016-08-13T01:32:31.054Z,1020.06
2016-08-13T01:33:31.069Z,1020.05
2016-08-13T01:34:31.103Z,1020.03
2016-08-13T01:35:31.112Z,1020.05
2016-08-13T01:36:31.136Z,1020.07
2016-08-13T01:37:31.164Z,1020.06
2016-08-13T01:38:31.178Z,1020.08
2016-08-13T01:39:31.201Z,1020.03
2016-08-13T01:40:31.223Z,1020.08
2016-08-13T01:41:31.249Z,1020.11
2016-08-13T01:42:31.265Z,1020.11
2016-08-13T01:43:31.282Z,1020.13
2016-08-13T01:44:31.343Z,1020.09
2016-08-13T01:45:31.322Z,1020.11
2016-08-13T01:46:31.342Z,1020.14
2016-08-13T01:47:31.362Z,1020.08
2016-08-13T01:48:31.391Z,1020.07
2016-08-13T01:49:31.404Z,1020.09
2016-08-13T01:50:31.437Z,1020.04
2016-08-13T01:51:31.445Z,1020.1
2016-08-13T01:52:31.525Z,1020.06
2016-08-13T01:53:31.500Z,1020.1
2016-08-13T01:54:31.512Z,1020.13
2016-08-13T01:55:31.537Z,1020.1
2016-08-13T01:56:31.554Z,1020.07
2016-08-13T01:57:31.571Z,1020.09
2016-08-13T01:58:31.591Z,1020.09
2016-08-13T01:59:31.623Z,1020.04
2016-08-13T02:00:31.644Z,1020.02
2016-08-13T02:01:31.662Z,1020.04
2016-08-13T02:02:31.685Z,1020.02
2016-08-13T02:03:31.705Z,1020
2016-08-13T02:04:31.724Z,1020.05
2016-08-13T02:05:31.744Z,1020.02
2016-08-13T02:06:31.762Z,1020.04
2016-08-13T02:07:31.787Z,1020.03
2016-08-13T02:08:31.812Z,1020.03
2016-08-13T02:09:31.827Z,1020.06
2016-08-13T02:10:31.847Z,1020.02
2016-08-13T02:11:31.866Z,1020.03
2016-08-13T02:12:31.891Z,1020.03
2016-08-13T02:13:31.913Z,1020.02
2016-08-13T02:14:31.933Z,1020.01
2016-08-13T02:15:31.952Z,1019.99
2016-08-13T02:16:31.979Z,1019.98
2016-08-13T02:17:31.991Z,1019.96
2016-08-13T02:18:32.021Z,1019.97
2016-08-13T02:19:32.038Z,1019.96
2016-08-13T02:20:32.063Z,1019.95
2016-08-13T02:21:32.078Z,1019.94
2016-08-13T02:22:32.112Z,1019.91
2016-08-13T02:23:32.124Z,1019.95
2016-08-13T02:24:32.141Z,1019.89
2016-08-13T02:25:32.161Z,1019.89
2016-08-13T02:26:32.181Z,1019.93
2016-08-13T02:27:32.205Z,1019.89
2016-08-13T02:28:32.227Z,1019.89
2016-08-13T02:29:32.249Z,1019.88
2016-08-13T02:30:32.270Z,1019.86
2016-08-13T02:31:32.292Z,1019.86
2016-08-13T02:32:32.310Z,1019.82
2016-08-13T02:33:32.329Z,1019.78
2016-08-13T02:34:32.352Z,1019.81
2016-08-13T02:35:32.374Z,1019.82
2016-08-13T02:36:32.398Z,1019.78
2016-08-13T02:37:32.417Z,1019.74
2016-08-13T02:38:32.442Z,1019.69
2016-08-13T02:39:32.461Z,1019.72
2016-08-13T02:40:32.481Z,1019.68
2016-08-13T02:41:32.513Z,1019.73
2016-08-13T02:42:32.528Z,1019.72
2016-08-13T02:43:32.541Z,1019.68
2016-08-13T02:44:32.570Z,1019.69
2016-08-13T02:45:32.588Z,1019.68
2016-08-13T02:46:32.609Z,1019.69
2016-08-13T02:47:32.632Z,1019.64
2016-08-13T02:48:32.651Z,1019.66
2016-08-13T02:49:32.672Z,1019.64
2016-08-13T02:50:32.689Z,1019.67
2016-08-13T02:51:32.712Z,1019.62
2016-08-13T02:52:32.739Z,1019.62
2016-08-13T02:53:32.755Z,1019.61
2016-08-13T02:54:32.781Z,1019.61
2016-08-13T02:55:32.795Z,1019.56
2016-08-13T02:56:32.915Z,1019.61
2016-08-13T02:57:32.838Z,1019.56
2016-08-13T02:58:32.910Z,1019.56
2016-08-13T02:59:32.885Z,1019.53
2016-08-13T03:00:32.911Z,1019.51
2016-08-13T03:01:32.924Z,1019.49
2016-08-13T03:02:32.946Z,1019.51
2016-08-13T03:03:32.967Z,1019.49
2016-08-13T03:04:32.991Z,1019.5
2016-08-13T03:05:33.011Z,1019.47
2016-08-13T03:06:33.030Z,1019.46
2016-08-13T03:07:33.156Z,1019.46
2016-08-13T03:08:33.073Z,1019.47
2016-08-13T03:09:33.140Z,1019.43
2016-08-13T03:10:33.111Z,1019.44
2016-08-13T03:11:33.136Z,1019.45
2016-08-13T03:12:33.152Z,1019.45
2016-08-13T03:13:33.176Z,1019.43
2016-08-13T03:14:33.200Z,1019.46
2016-08-13T03:15:33.217Z,1019.42
2016-08-13T03:16:33.239Z,1019.4
2016-08-13T03:17:33.261Z,1019.4
2016-08-13T03:18:33.291Z,1019.4
2016-08-13T03:19:33.303Z,1019.33
2016-08-13T03:20:33.422Z,1019.34
2016-08-13T03:21:33.344Z,1019.32
2016-08-13T03:22:33.368Z,1019.31
2016-08-13T03:23:33.385Z,1019.29
2016-08-13T03:24:33.408Z,1019.26
2016-08-13T03:25:33.433Z,1019.26
2016-08-13T03:26:33.450Z,1019.26
2016-08-13T03:27:33.471Z,1019.28
2016-08-13T03:28:33.490Z,1019.23
2016-08-13T03:29:33.513Z,1019.3
2016-08-13T03:30:33.535Z,1019.22
2016-08-13T03:31:33.558Z,1019.26
2016-08-13T03:32:33.582Z,1019.23
2016-08-13T03:33:33.599Z,1019.22
2016-08-13T03:34:33.623Z,1019.24
2016-08-13T03:35:33.638Z,1019.26
2016-08-13T03:36:33.657Z,1019.23
2016-08-13T03:37:33.676Z,1019.2
2016-08-13T03:38:33.703Z,1019.24
2016-08-13T03:39:33.721Z,1019.25
2016-08-13T03:40:33.742Z,1019.22
2016-08-13T03:41:33.767Z,1019.21
2016-08-13T03:42:33.792Z,1019.23
2016-08-13T03:43:33.808Z,1019.26
2016-08-13T03:44:33.832Z,1019.28
2016-08-13T03:45:33.850Z,1019.27
2016-08-13T03:46:33.879Z,1019.3
2016-08-13T03:47:33.899Z,1019.33
2016-08-13T03:48:33.911Z,1019.29
2016-08-13T03:49:33.934Z,1019.33
2016-08-13T03:50:33.955Z,1019.3
2016-08-13T03:51:33.972Z,1019.28
2016-08-13T03:52:34.043Z,1019.26
2016-08-13T03:53:34.012Z,1019.24
2016-08-13T03:54:34.045Z,1019.25
2016-08-13T03:55:34.066Z,1019.22
2016-08-13T03:56:34.083Z,1019.21
2016-08-13T03:57:34.101Z,1019.18
2016-08-13T03:58:34.123Z,1019.19
2016-08-13T03:59:34.143Z,1019.16
2016-08-13T04:00:34.165Z,1019.16
2016-08-13T04:01:34.190Z,1019.13
2016-08-13T04:02:34.204Z,1019.13
2016-08-13T04:03:34.231Z,1019.11
2016-08-13T04:04:34.254Z,1019.09
2016-08-13T04:05:34.272Z,1019.08
2016-08-13T04:06:34.287Z,1019.06
2016-08-13T04:07:34.313Z,1019.07
2016-08-13T04:08:34.334Z,1019.06
2016-08-13T04:09:34.348Z,1019.08
2016-08-13T04:10:34.373Z,1019.11
2016-08-13T04:11:34.394Z,1019.08
2016-08-13T04:12:34.411Z,1019.04
2016-08-13T04:13:34.432Z,1019.08
2016-08-13T04:14:34.460Z,1019.04
2016-08-13T04:15:34.482Z,1019.03
2016-08-13T04:16:34.504Z,1019.01
2016-08-13T04:17:34.522Z,1019.04
2016-08-13T04:18:34.543Z,1019.07
2016-08-13T04:19:34.573Z,1019.07
2016-08-13T04:20:34.597Z,1019.08
2016-08-13T04:21:34.601Z,1019.07
2016-08-13T04:22:34.622Z,1019.03
2016-08-13T04:23:34.646Z,1019.1
2016-08-13T04:24:34.672Z,1019.08
2016-08-13T04:25:34.694Z,1019.07
2016-08-13T04:26:34.710Z,1019.1
2016-08-13T04:27:34.732Z,1019.09
2016-08-13T04:28:34.753Z,1019.09
2016-08-13T04:29:34.772Z,1019.11
2016-08-13T04:30:34.789Z,1019.13
2016-08-13T04:31:34.822Z,1019.12
2016-08-13T04:32:34.918Z,1019.09
2016-08-13T04:33:34.863Z,1019.11
2016-08-13T04:34:34.932Z,1019.11
2016-08-13T04:35:34.907Z,1019.07
2016-08-13T04:36:34.923Z,1019.11
2016-08-13T04:37:34.943Z,1019.1
2016-08-13T04:38:34.960Z,1019.15
2016-08-13T04:39:34.984Z,1019.16
2016-08-13T04:40:35.004Z,1019.13
2016-08-13T04:41:35.034Z,1019.13
2016-08-13T04:42:35.054Z,1019.14
2016-08-13T04:43:35.079Z,1019.17
2016-08-13T04:44:35.091Z,1019.19
2016-08-13T04:45:35.281Z,1019.18
2016-08-13T04:46:35.137Z,1019.19
2016-08-13T04:47:35.159Z,1019.14
2016-08-13T04:48:35.177Z,1019.15
2016-08-13T04:49:35.194Z,1019.16
2016-08-13T04:50:35.224Z,1019.18
2016-08-13T04:51:35.248Z,1019.18
2016-08-13T04:52:35.312Z,1019.2
2016-08-13T04:53:35.291Z,1019.23
2016-08-13T04:54:35.304Z,1019.25
2016-08-13T04:55:35.322Z,1019.22
2016-08-13T04:56:35.357Z,1019.18
2016-08-13T04:57:35.567Z,1019.17
2016-08-13T04:58:35.503Z,1019.13
2016-08-13T04:59:35.414Z,1019.11
2016-08-13T05:00:35.431Z,1019.09
2016-08-13T05:01:35.456Z,1019.09
2016-08-13T05:02:35.483Z,1019.1
2016-08-13T05:03:35.503Z,1019.1
2016-08-13T05:04:35.523Z,1019.08
2016-08-13T05:05:35.545Z,1019.08
2016-08-13T05:06:35.573Z,1019.04
2016-08-13T05:07:35.590Z,1019.1
2016-08-13T05:08:35.616Z,1019.05
2016-08-13T05:09:35.632Z,1019.11
2016-08-13T05:10:35.652Z,1019.1
2016-08-13T05:11:35.682Z,1019.13
2016-08-13T05:12:35.698Z,1019.12
2016-08-13T05:13:35.727Z,1019.06
2016-08-13T05:14:35.745Z,1019.09
2016-08-13T05:15:35.768Z,1019.14
2016-08-13T05:16:35.784Z,1019.15
2016-08-13T05:17:35.811Z,1019.19
2016-08-13T05:18:35.833Z,1019.18
2016-08-13T05:19:35.853Z,1019.21
2016-08-13T05:20:35.873Z,1019.1
2016-08-13T05:21:35.911Z,1019.13
2016-08-13T05:22:35.925Z,1019.08
2016-08-13T05:23:35.945Z,1019.12
2016-08-13T05:24:35.974Z,1019.14
2016-08-13T05:25:35.990Z,1019.15
2016-08-13T05:26:36.015Z,1019.23
2016-08-13T05:27:36.038Z,1019.27
2016-08-13T05:28:36.063Z,1019.34
2016-08-13T05:29:36.285Z,1019.32
2016-08-13T05:30:36.104Z,1019.29
2016-08-13T05:31:36.131Z,1019.27
2016-08-13T05:32:36.150Z,1019.24
2016-08-13T05:33:36.184Z,1019.23
2016-08-13T05:34:36.213Z,1019.28
2016-08-13T05:35:36.228Z,1019.27
2016-08-13T05:36:36.252Z,1019.26
2016-08-13T05:37:36.273Z,1019.26
2016-08-13T05:38:36.302Z,1019.22
2016-08-13T05:39:36.324Z,1019.21
2016-08-13T05:40:36.355Z,1019.26
2016-08-13T05:41:36.369Z,1019.33
2016-08-13T05:42:36.402Z,1019.28
2016-08-13T05:43:36.425Z,1019.27
2016-08-13T05:44:36.448Z,1019.26
2016-08-13T05:45:36.475Z,1019.28
2016-08-13T05:46:36.505Z,1019.24
2016-08-13T05:47:36.519Z,1019.23
2016-08-13T05:48:36.543Z,1019.23
2016-08-13T05:49:36.568Z,1019.24
2016-08-13T05:50:36.594Z,1019.19
2016-08-13T05:51:36.626Z,1019.22
2016-08-13T05:52:36.689Z,1019.27
2016-08-13T05:53:36.674Z,1019.2
2016-08-13T05:54:36.690Z,1019.19
2016-08-13T05:55:36.732Z,1019.23
2016-08-13T05:56:36.734Z,1019.2
2016-08-13T05:57:36.761Z,1019.21
2016-08-13T05:58:36.795Z,1019.18
2016-08-13T05:59:36.805Z,1019.17
2016-08-13T06:00:36.847Z,1019.14
2016-08-13T06:01:36.852Z,1019.11
2016-08-13T06:02:36.874Z,1019.14
2016-08-13T06:03:36.903Z,1019.12
2016-08-13T06:04:36.923Z,1019.11
2016-08-13T06:05:36.947Z,1019.13
2016-08-13T06:06:36.969Z,1019.08
2016-08-13T06:07:36.992Z,1019.14
2016-08-13T06:08:37.065Z,1019.1
2016-08-13T06:09:37.040Z,1019.12
2016-08-13T06:10:37.056Z,1019.15
2016-08-13T06:11:37.083Z,1019.15
2016-08-13T06:12:37.113Z,1019.15
2016-08-13T06:13:37.127Z,1019.2
2016-08-13T06:14:37.145Z,1019.19
2016-08-13T06:15:37.175Z,1019.13
2016-08-13T06:16:37.203Z,1019.15
2016-08-13T06:17:37.223Z,1019.16
2016-08-13T06:18:37.242Z,1019.19
2016-08-13T06:19:37.264Z,1019.22
2016-08-13T06:20:37.292Z,1019.18
2016-08-13T06:21:37.314Z,1019.21
2016-08-13T06:22:37.334Z,1019.14
2016-08-13T06:23:37.357Z,1019.19
2016-08-13T06:24:37.382Z,1019.19
2016-08-13T06:25:37.406Z,1019.2
2016-08-13T06:26:37.425Z,1019.16
2016-08-13T06:27:37.444Z,1019.19
2016-08-13T06:28:37.558Z,1019.22
2016-08-13T06:29:37.502Z,1019.25
2016-08-13T06:30:37.574Z,1019.25
2016-08-13T06:31:37.542Z,1019.28
2016-08-13T06:32:37.562Z,1019.27
2016-08-13T06:33:37.587Z,1019.23
2016-08-13T06:34:37.614Z,1019.27
2016-08-13T06:35:37.630Z,1019.27
2016-08-13T06:36:37.656Z,1019.34
2016-08-13T06:37:37.677Z,1019.27
2016-08-13T06:38:37.705Z,1019.29
2016-08-13T06:39:37.720Z,1019.25
2016-08-13T06:40:37.747Z,1019.29
2016-08-13T06:41:37.767Z,1019.31
2016-08-13T06:42:37.793Z,1019.31
2016-08-13T06:43:38.013Z,1019.38
2016-08-13T06:44:38.094Z,1019.33
2016-08-13T06:45:38.010Z,1019.35
2016-08-13T06:46:37.982Z,1019.35
2016-08-13T06:47:38.053Z,1019.4
2016-08-13T06:48:38.028Z,1019.44
2016-08-13T06:49:38.056Z,1019.46
2016-08-13T06:50:38.028Z,1019.48
2016-08-13T06:51:38.103Z,1019.4
2016-08-13T06:52:38.174Z,1019.41
2016-08-13T06:53:38.045Z,1019.48
2016-08-13T06:54:38.079Z,1019.55
2016-08-13T06:55:38.093Z,1019.53
2016-08-13T06:56:38.566Z,1019.58
2016-08-13T06:57:38.156Z,1019.57
2016-08-13T06:58:38.158Z,1019.55
2016-08-13T06:59:38.197Z,1019.54
2016-08-13T07:00:38.213Z,1019.58
2016-08-13T07:01:38.236Z,1019.61
2016-08-13T07:02:38.268Z,1019.67
2016-08-13T07:03:38.281Z,1019.69
2016-08-13T07:04:38.306Z,1019.64
2016-08-13T07:05:38.345Z,1019.7
2016-08-13T07:06:38.356Z,1019.78
2016-08-13T07:07:38.380Z,1019.77
2016-08-13T07:08:38.405Z,1019.63
2016-08-13T07:09:38.434Z,1019.72
2016-08-13T07:10:38.460Z,1019.65
2016-08-13T07:11:38.484Z,1019.76
2016-08-13T07:12:38.510Z,1019.68
2016-08-13T07:13:38.541Z,1019.81
2016-08-13T07:14:38.569Z,1019.65
2016-08-13T07:15:38.596Z,1019.67
2016-08-13T07:16:38.630Z,1019.71
2016-08-13T07:17:38.644Z,1019.65
2016-08-13T07:18:38.683Z,1019.72
2016-08-13T07:19:38.699Z,1019.71
2016-08-13T07:20:38.728Z,1019.7
2016-08-13T07:21:38.758Z,1019.68
2016-08-13T07:22:38.791Z,1019.82
2016-08-13T07:23:38.814Z,1019.75
2016-08-13T07:24:38.843Z,1019.77
2016-08-13T07:25:38.931Z,1019.95
2016-08-13T07:26:38.896Z,1019.97
2016-08-13T07:27:38.970Z,1019.96
2016-08-13T07:28:38.955Z,1019.97
2016-08-13T07:29:38.975Z,1019.95
2016-08-13T07:30:39.013Z,1019.86
2016-08-13T07:31:39.038Z,1020.01
2016-08-13T07:32:39.061Z,1019.99
2016-08-13T07:33:39.099Z,1020.01
2016-08-13T07:34:39.126Z,1019.97
2016-08-13T07:35:39.149Z,1019.91
2016-08-13T07:36:39.185Z,1019.97
2016-08-13T07:37:39.211Z,1019.91
2016-08-13T07:38:39.244Z,1019.91
2016-08-13T07:39:39.266Z,1020.02
2016-08-13T07:40:39.298Z,1020
2016-08-13T07:41:39.325Z,1019.92
2016-08-13T07:42:39.359Z,1020.05
2016-08-13T07:43:39.386Z,1019.97
2016-08-13T07:44:39.417Z,1020.09
2016-08-13T07:45:39.506Z,1019.97
2016-08-13T07:46:39.472Z,1019.88
2016-08-13T07:47:39.515Z,1020.05
2016-08-13T07:48:39.533Z,1020.21
2016-08-13T07:49:39.557Z,1020.06
2016-08-13T07:50:39.594Z,1020.12
2016-08-13T07:51:39.620Z,1019.95
2016-08-13T07:52:39.653Z,1020.03
2016-08-13T07:53:39.683Z,1020.19
2016-08-13T07:54:39.715Z,1020.17
2016-08-13T07:55:39.746Z,1020.07
2016-08-13T07:56:39.774Z,1020.16
2016-08-13T07:57:39.798Z,1020.16
2016-08-13T07:58:39.831Z,1020.09
2016-08-13T07:59:39.865Z,1020.16
2016-08-13T08:00:39.893Z,1020.15
2016-08-13T08:01:39.922Z,1020.09
2016-08-13T08:02:39.955Z,1020.14
2016-08-13T08:03:39.986Z,1020.15
2016-08-13T08:04:40.016Z,1020.12
2016-08-13T08:05:40.040Z,1020.11
2016-08-13T08:06:40.065Z,1020.1
2016-08-13T08:07:40.107Z,1020.17
2016-08-13T08:08:40.135Z,1020.1
2016-08-13T08:09:40.153Z,1020.03
2016-08-13T08:10:40.188Z,1020.11
2016-08-13T08:11:40.214Z,1020.07
2016-08-13T08:12:40.243Z,1020.06
2016-08-13T08:13:40.276Z,1020.03
2016-08-13T08:14:40.306Z,1020.03
2016-08-13T08:15:40.333Z,1020.03
2016-08-13T08:16:40.374Z,1020.05
2016-08-13T08:17:40.409Z,1020.02
2016-08-13T08:18:40.422Z,1020.02
2016-08-13T08:19:40.455Z,1019.98
2016-08-13T08:20:40.492Z,1019.9
2016-08-13T08:21:40.512Z,1019.94
2016-08-13T08:22:40.542Z,1019.9
2016-08-13T08:23:40.573Z,1019.93
2016-08-13T08:24:40.597Z,1019.95
2016-08-13T08:25:40.628Z,1020.02
2016-08-13T08:26:40.654Z,1020.05
2016-08-13T08:27:40.682Z,1020.03
2016-08-13T08:28:40.724Z,1019.98
2016-08-13T08:29:40.742Z,1019.96
2016-08-13T08:30:40.768Z,1020.01
2016-08-13T08:31:40.801Z,1020
2016-08-13T08:32:40.837Z,1020.02
2016-08-13T08:33:40.845Z,1020.04
2016-08-13T08:34:40.883Z,1020.03
2016-08-13T08:35:40.907Z,1020.1
2016-08-13T08:36:40.934Z,1020.14
2016-08-13T08:37:40.962Z,1020.08
2016-08-13T08:38:40.982Z,1020.09
2016-08-13T08:39:41.015Z,1020.11
2016-08-13T08:40:41.041Z,1020.12
2016-08-13T08:41:41.065Z,1020.12
2016-08-13T08:42:41.095Z,1020.11
2016-08-13T08:43:41.124Z,1020.15
2016-08-13T08:44:41.151Z,1020.1
2016-08-13T08:45:41.188Z,1020.08
2016-08-13T08:46:41.211Z,1020.12
2016-08-13T08:47:41.233Z,1020.08
2016-08-13T08:48:41.253Z,1020.09
2016-08-13T08:49:41.334Z,1020.15
2016-08-13T08:50:41.515Z,1020.21
2016-08-13T08:51:41.344Z,1020.14
2016-08-13T08:52:41.415Z,1020.14
2016-08-13T08:53:41.392Z,1020.13
2016-08-13T08:54:41.423Z,1020.13
2016-08-13T08:55:41.443Z,1020.05
2016-08-13T08:56:41.481Z,1020.11
2016-08-13T08:57:41.502Z,1020.1
2016-08-13T08:58:41.525Z,1020.2
2016-08-13T08:59:41.554Z,1020.17
2016-08-13T09:00:41.579Z,1020.13
2016-08-13T09:01:41.602Z,1020.17
2016-08-13T09:02:41.641Z,1020.16
2016-08-13T09:03:41.664Z,1020.19
2016-08-13T09:04:41.678Z,1020.19
2016-08-13T09:05:41.714Z,1020.18
2016-08-13T09:06:41.748Z,1020.16
2016-08-13T09:07:41.764Z,1020.2
2016-08-13T09:08:41.788Z,1020.24
2016-08-13T09:09:41.815Z,1020.21
2016-08-13T09:10:41.838Z,1020.24
2016-08-13T09:11:41.881Z,1020.19
2016-08-13T09:12:41.892Z,1020.19
2016-08-13T09:13:41.921Z,1020.16
2016-08-13T09:14:41.944Z,1020.19
2016-08-13T09:15:41.973Z,1020.21
2016-08-13T09:16:42.008Z,1020.26
2016-08-13T09:17:42.022Z,1020.29
2016-08-13T09:18:42.053Z,1020.21
2016-08-13T09:19:42.077Z,1020.28
2016-08-13T09:20:42.108Z,1020.29
2016-08-13T09:21:42.130Z,1020.29
2016-08-13T09:22:42.169Z,1020.28
2016-08-13T09:23:42.183Z,1020.3
2016-08-13T09:24:42.214Z,1020.36
2016-08-13T09:25:42.232Z,1020.33
2016-08-13T09:26:42.264Z,1020.34
2016-08-13T09:27:42.290Z,1020.3
2016-08-13T09:28:42.315Z,1020.33
2016-08-13T09:29:42.339Z,1020.27
2016-08-13T09:30:42.367Z,1020.36
2016-08-13T09:31:42.390Z,1020.27
2016-08-13T09:32:42.423Z,1020.33
2016-08-13T09:33:42.458Z,1020.41
2016-08-13T09:34:42.476Z,1020.4
2016-08-13T09:35:42.501Z,1020.47
2016-08-13T09:36:42.531Z,1020.44
2016-08-13T09:37:42.558Z,1020.38
2016-08-13T09:38:42.579Z,1020.33
2016-08-13T09:39:42.621Z,1020.44
2016-08-13T09:40:42.643Z,1020.4
2016-08-13T09:41:42.661Z,1020.41
2016-08-13T09:42:42.708Z,1020.37
2016-08-13T09:43:42.717Z,1020.39
2016-08-13T09:44:42.742Z,1020.36
2016-08-13T09:45:42.773Z,1020.43
2016-08-13T09:46:42.804Z,1020.47
2016-08-13T09:47:42.831Z,1020.41
2016-08-13T09:48:42.853Z,1020.4
2016-08-13T09:49:42.888Z,1020.4
2016-08-13T09:50:42.901Z,1020.39
2016-08-13T09:51:43.035Z,1020.39
2016-08-13T09:52:43.007Z,1020.36
2016-08-13T09:53:42.986Z,1020.39
2016-08-13T09:54:43.011Z,1020.46
2016-08-13T09:55:43.041Z,1020.43
2016-08-13T09:56:43.062Z,1020.41
2016-08-13T09:57:43.099Z,1020.38
2016-08-13T09:58:43.120Z,1020.39
2016-08-13T09:59:43.145Z,1020.44
2016-08-13T10:00:43.172Z,1020.47
2016-08-13T10:01:43.204Z,1020.44
2016-08-13T10:02:43.240Z,1020.51
2016-08-13T10:03:43.253Z,1020.42
2016-08-13T10:04:43.281Z,1020.37
2016-08-13T10:05:43.306Z,1020.39
2016-08-13T10:06:43.336Z,1020.43
2016-08-13T10:07:43.362Z,1020.45
2016-08-13T10:08:43.394Z,1020.47
2016-08-13T10:09:43.423Z,1020.38
2016-08-13T10:10:43.442Z,1020.38
2016-08-13T10:11:43.474Z,1020.35
2016-08-13T10:12:43.491Z,1020.37
2016-08-13T10:13:43.523Z,1020.38
2016-08-13T10:14:43.547Z,1020.34
2016-08-13T10:15:43.578Z,1020.34
2016-08-13T10:16:43.802Z,1020.37
2016-08-13T10:17:43.630Z,1020.28
2016-08-13T10:18:43.659Z,1020.31
2016-08-13T10:19:43.683Z,1020.29
2016-08-13T10:20:43.710Z,1020.24
2016-08-13T10:21:43.743Z,1020.32
2016-08-13T10:22:43.765Z,1020.27
2016-08-13T10:23:43.789Z,1020.2
2016-08-13T10:24:43.825Z,1020.22
2016-08-13T10:25:43.849Z,1020.26
2016-08-13T10:26:43.882Z,1020.25
2016-08-13T10:27:43.903Z,1020.21
2016-08-13T10:28:43.940Z,1020.19
2016-08-13T10:29:43.961Z,1020.17
2016-08-13T10:30:43.992Z,1020.17
2016-08-13T10:31:44.005Z,1020.26
2016-08-13T10:32:44.037Z,1020.25
2016-08-13T10:33:44.057Z,1020.2
2016-08-13T10:34:44.090Z,1020.2
2016-08-13T10:35:44.114Z,1020.22
2016-08-13T10:36:44.138Z,1020.22
2016-08-13T10:37:44.169Z,1020.27
2016-08-13T10:38:44.201Z,1020.27
2016-08-13T10:39:44.220Z,1020.25
2016-08-13T10:40:44.249Z,1020.23
2016-08-13T10:41:44.270Z,1020.18
2016-08-13T10:42:44.299Z,1020.23
2016-08-13T10:43:44.329Z,1020.24
2016-08-13T10:44:44.349Z,1020.29
2016-08-13T10:45:44.395Z,1020.34
2016-08-13T10:46:44.412Z,1020.3
2016-08-13T10:47:44.428Z,1020.35
2016-08-13T10:48:44.462Z,1020.3
2016-08-13T10:49:44.493Z,1020.29
2016-08-13T10:50:44.511Z,1020.33
2016-08-13T10:51:44.541Z,1020.29
2016-08-13T10:52:44.571Z,1020.28
2016-08-13T10:53:44.610Z,1020.19
2016-08-13T10:54:44.622Z,1020.16
2016-08-13T10:55:44.642Z,1020.24
2016-08-13T10:56:44.676Z,1020.26
2016-08-13T10:57:44.702Z,1020.21
2016-08-13T10:58:44.733Z,1020.21
2016-08-13T10:59:44.755Z,1020.24
2016-08-13T11:00:44.789Z,1020.26
2016-08-13T11:01:44.804Z,1020.27
2016-08-13T11:02:44.833Z,1020.23
2016-08-13T11:03:44.863Z,1020.25
2016-08-13T11:04:44.886Z,1020.25
2016-08-13T11:05:44.911Z,1020.3
2016-08-13T11:06:44.940Z,1020.29
2016-08-13T11:07:44.969Z,1020.33
2016-08-13T11:08:44.991Z,1020.34
2016-08-13T11:09:45.022Z,1020.34
2016-08-13T11:10:45.055Z,1020.31
2016-08-13T11:11:45.071Z,1020.37
2016-08-13T11:12:45.102Z,1020.37
2016-08-13T11:13:45.128Z,1020.38
2016-08-13T11:14:45.161Z,1020.43
2016-08-13T11:15:45.259Z,1020.43
2016-08-13T11:16:45.207Z,1020.43
2016-08-13T11:17:45.283Z,1020.41
2016-08-13T11:18:45.259Z,1020.4
2016-08-13T11:19:45.295Z,1020.38
2016-08-13T11:20:45.322Z,1020.38
2016-08-13T11:21:45.337Z,1020.38
2016-08-13T11:22:45.368Z,1020.41
2016-08-13T11:23:45.391Z,1020.42
2016-08-13T11:24:45.422Z,1020.38
2016-08-13T11:25:45.441Z,1020.37
2016-08-13T11:26:45.573Z,1020.35
2016-08-13T11:27:45.496Z,1020.38
2016-08-13T11:28:45.532Z,1020.37
2016-08-13T11:29:45.550Z,1020.33
2016-08-13T11:30:45.587Z,1020.35
2016-08-13T11:31:45.612Z,1020.39
2016-08-13T11:32:45.631Z,1020.35
2016-08-13T11:33:45.658Z,1020.35
2016-08-13T11:34:45.691Z,1020.45
2016-08-13T11:35:45.727Z,1020.43
2016-08-13T11:36:45.949Z,1020.41
2016-08-13T11:37:45.963Z,1020.4
2016-08-13T11:38:45.792Z,1020.42
2016-08-13T11:39:45.824Z,1020.42
2016-08-13T11:40:45.847Z,1020.43
2016-08-13T11:41:45.879Z,1020.45
2016-08-13T11:42:45.902Z,1020.4
2016-08-13T11:43:45.932Z,1020.43
2016-08-13T11:44:45.955Z,1020.38
2016-08-13T11:45:45.980Z,1020.43
2016-08-13T11:46:46.013Z,1020.41
2016-08-13T11:47:46.042Z,1020.42
2016-08-13T11:48:46.060Z,1020.42
2016-08-13T11:49:46.102Z,1020.38
2016-08-13T11:50:46.117Z,1020.47
2016-08-13T11:51:46.141Z,1020.45
2016-08-13T11:52:46.233Z,1020.43
2016-08-13T11:53:46.202Z,1020.42
2016-08-13T11:54:46.233Z,1020.4
2016-08-13T11:55:46.251Z,1020.42
2016-08-13T11:56:46.282Z,1020.4
2016-08-13T11:57:46.307Z,1020.35
2016-08-13T11:58:46.340Z,1020.37
2016-08-13T11:59:46.361Z,1020.35
2016-08-13T12:00:46.388Z,1020.47
2016-08-13T12:01:46.423Z,1020.48
2016-08-13T12:02:46.445Z,1020.47
2016-08-13T12:03:46.472Z,1020.43
2016-08-13T12:04:46.503Z,1020.4
2016-08-13T12:05:46.539Z,1020.35
2016-08-13T12:07:46.580Z,1020.38
2016-08-13T12:08:46.612Z,1020.36
2016-08-13T12:09:46.644Z,1020.35